sensor_id;sensor_type;location;lat;lon;timestamp;P1;durP1;ratioP1;P2;durP2;ratioP2
1682;SDS011;13252;53.596;10.060;2023-07-29T00:00:51;9.40;;;7.80;;
1682;SDS011;13252;53.596;10.060;2023-07-29T00:03:18;10.07;;;7.93;;
1682;SDS011;13252;53.596;10.060;2023-07-29T00:05:47;12.40;;;8.30;;
1682;SDS011;13252;53.596;10.060;2023-07-29T00:08:16;11.50;;;8.60;;
1682;SDS011;13252;53.596;10.060;2023-07-29T00:10:43;10.63;;;8.20;;
1682;SDS011;13252;53.596;10.060;2023-07-29T00:13:11;14.10;;;10.00;;
1682;SDS011;13252;53.596;10.060;2023-07-29T00:15:38;10.53;;;9.53;;
1682;SDS011;13252;53.596;10.060;2023-07-29T00:18:06;17.40;;;9.27;;
1682;SDS011;13252;53.596;10.060;2023-07-29T00:20:34;11.93;;;8.23;;
1682;SDS011;13252;53.596;10.060;2023-07-29T00:23:01;13.83;;;8.43;;
1682;SDS011;13252;53.596;10.060;2023-07-29T00:25:30;10.23;;;8.23;;
1682;SDS011;13252;53.596;10.060;2023-07-29T00:27:58;11.53;;;8.50;;
1682;SDS011;13252;53.596;10.060;2023-07-29T00:30:26;10.50;;;9.27;;
1682;SDS011;13252;53.596;10.060;2023-07-29T00:32:53;10.47;;;8.90;;
1682;SDS011;13252;53.596;10.060;2023-07-29T00:35:21;11.40;;;9.47;;
1682;SDS011;13252;53.596;10.060;2023-07-29T00:37:49;9.10;;;8.10;;
1682;SDS011;13252;53.596;10.060;2023-07-29T00:40:20;9.80;;;8.80;;
1682;SDS011;13252;53.596;10.060;2023-07-29T00:42:49;10.10;;;8.00;;
1682;SDS011;13252;53.596;10.060;2023-07-29T00:45:17;10.53;;;9.10;;
1682;SDS011;13252;53.596;10.060;2023-07-29T00:47:45;11.87;;;8.70;;
1682;SDS011;13252;53.596;10.060;2023-07-29T00:50:15;9.90;;;8.93;;
1682;SDS011;13252;53.596;10.060;2023-07-29T00:52:43;10.93;;;8.63;;
1682;SDS011;13252;53.596;10.060;2023-07-29T00:55:11;8.53;;;7.63;;
1682;SDS011;13252;53.596;10.060;2023-07-29T00:57:39;10.30;;;8.83;;
1682;SDS011;13252;53.596;10.060;2023-07-29T01:00:09;9.73;;;8.83;;
1682;SDS011;13252;53.596;10.060;2023-07-29T01:02:37;10.10;;;9.00;;
1682;SDS011;13252;53.596;10.060;2023-07-29T01:05:05;12.23;;;9.40;;
1682;SDS011;13252;53.596;10.060;2023-07-29T01:07:35;11.27;;;8.77;;
1682;SDS011;13252;53.596;10.060;2023-07-29T01:10:07;9.60;;;8.60;;
1682;SDS011;13252;53.596;10.060;2023-07-29T01:12:42;10.20;;;9.20;;
1682;SDS011;13252;53.596;10.060;2023-07-29T01:15:16;9.83;;;8.63;;
1682;SDS011;13252;53.596;10.060;2023-07-29T01:17:47;10.77;;;9.30;;
1682;SDS011;13252;53.596;10.060;2023-07-29T01:20:17;11.20;;;9.13;;
1682;SDS011;13252;53.596;10.060;2023-07-29T01:22:47;11.83;;;9.40;;
1682;SDS011;13252;53.596;10.060;2023-07-29T01:25:16;11.37;;;9.30;;
1682;SDS011;13252;53.596;10.060;2023-07-29T01:27:44;10.43;;;9.43;;
1682;SDS011;13252;53.596;10.060;2023-07-29T01:30:13;13.80;;;10.50;;
1682;SDS011;13252;53.596;10.060;2023-07-29T01:32:47;16.80;;;10.23;;
1682;SDS011;13252;53.596;10.060;2023-07-29T01:35:19;11.83;;;9.33;;
1682;SDS011;13252;53.596;10.060;2023-07-29T01:37:51;10.90;;;9.60;;
1682;SDS011;13252;53.596;10.060;2023-07-29T01:40:22;14.53;;;9.50;;
1682;SDS011;13252;53.596;10.060;2023-07-29T01:42:50;10.73;;;9.53;;
1682;SDS011;13252;53.596;10.060;2023-07-29T01:45:18;10.00;;;8.33;;
1682;SDS011;13252;53.596;10.060;2023-07-29T01:47:46;10.83;;;8.83;;
1682;SDS011;13252;53.596;10.060;2023-07-29T01:50:14;13.13;;;8.50;;
1682;SDS011;13252;53.596;10.060;2023-07-29T01:52:41;9.90;;;8.90;;
1682;SDS011;13252;53.596;10.060;2023-07-29T01:55:09;11.33;;;9.50;;
1682;SDS011;13252;53.596;10.060;2023-07-29T01:57:38;10.40;;;9.40;;
1682;SDS011;13252;53.596;10.060;2023-07-29T02:00:06;17.43;;;10.50;;
1682;SDS011;13252;53.596;10.060;2023-07-29T02:02:40;15.30;;;11.50;;
1682;SDS011;13252;53.596;10.060;2023-07-29T02:05:08;21.73;;;12.20;;
1682;SDS011;13252;53.596;10.060;2023-07-29T02:07:36;14.00;;;12.47;;
1682;SDS011;13252;53.596;10.060;2023-07-29T02:10:04;18.07;;;13.23;;
1682;SDS011;13252;53.596;10.060;2023-07-29T02:12:32;14.10;;;12.60;;
1682;SDS011;13252;53.596;10.060;2023-07-29T02:15:02;19.67;;;14.60;;
1682;SDS011;13252;53.596;10.060;2023-07-29T02:17:30;17.13;;;12.43;;
1682;SDS011;13252;53.596;10.060;2023-07-29T02:19:58;15.13;;;11.53;;
1682;SDS011;13252;53.596;10.060;2023-07-29T02:22:26;15.03;;;12.20;;
1682;SDS011;13252;53.596;10.060;2023-07-29T02:24:53;15.90;;;12.17;;
1682;SDS011;13252;53.596;10.060;2023-07-29T02:27:21;14.37;;;12.00;;
1682;SDS011;13252;53.596;10.060;2023-07-29T02:29:51;13.57;;;12.03;;
1682;SDS011;13252;53.596;10.060;2023-07-29T02:32:20;13.77;;;12.13;;
1682;SDS011;13252;53.596;10.060;2023-07-29T02:34:48;13.27;;;11.97;;
1682;SDS011;13252;53.596;10.060;2023-07-29T02:37:16;12.90;;;11.57;;
1682;SDS011;13252;53.596;10.060;2023-07-29T02:39:44;14.43;;;12.37;;
1682;SDS011;13252;53.596;10.060;2023-07-29T02:42:11;16.50;;;13.57;;
1682;SDS011;13252;53.596;10.060;2023-07-29T02:44:40;15.53;;;13.53;;
1682;SDS011;13252;53.596;10.060;2023-07-29T02:47:07;15.33;;;13.83;;
1682;SDS011;13252;53.596;10.060;2023-07-29T02:49:36;15.53;;;14.00;;
1682;SDS011;13252;53.596;10.060;2023-07-29T02:52:04;17.27;;;14.37;;
1682;SDS011;13252;53.596;10.060;2023-07-29T02:54:32;15.03;;;13.50;;
1682;SDS011;13252;53.596;10.060;2023-07-29T02:56:59;17.60;;;14.73;;
1682;SDS011;13252;53.596;10.060;2023-07-29T02:59:27;17.00;;;15.20;;
1682;SDS011;13252;53.596;10.060;2023-07-29T03:01:54;21.00;;;15.53;;
1682;SDS011;13252;53.596;10.060;2023-07-29T03:04:22;17.10;;;15.27;;
1682;SDS011;13252;53.596;10.060;2023-07-29T03:06:52;18.77;;;15.77;;
1682;SDS011;13252;53.596;10.060;2023-07-29T03:09:19;17.57;;;15.70;;
1682;SDS011;13252;53.596;10.060;2023-07-29T03:11:47;18.00;;;16.10;;
1682;SDS011;13252;53.596;10.060;2023-07-29T03:14:14;19.13;;;17.23;;
1682;SDS011;13252;53.596;10.060;2023-07-29T03:16:42;19.03;;;17.13;;
1682;SDS011;13252;53.596;10.060;2023-07-29T03:19:10;17.80;;;15.70;;
1682;SDS011;13252;53.596;10.060;2023-07-29T03:21:38;17.80;;;16.00;;
1682;SDS011;13252;53.596;10.060;2023-07-29T03:24:06;21.30;;;17.10;;
1682;SDS011;13252;53.596;10.060;2023-07-29T03:26:34;19.60;;;17.60;;
1682;SDS011;13252;53.596;10.060;2023-07-29T03:29:02;19.80;;;17.43;;
1682;SDS011;13252;53.596;10.060;2023-07-29T03:31:30;19.40;;;17.30;;
1682;SDS011;13252;53.596;10.060;2023-07-29T03:33:57;22.00;;;17.53;;
1682;SDS011;13252;53.596;10.060;2023-07-29T03:36:25;18.57;;;16.60;;
1682;SDS011;13252;53.596;10.060;2023-07-29T03:38:53;20.80;;;17.90;;
1682;SDS011;13252;53.596;10.060;2023-07-29T03:41:22;19.50;;;17.43;;
1682;SDS011;13252;53.596;10.060;2023-07-29T03:43:49;20.93;;;17.53;;
1682;SDS011;13252;53.596;10.060;2023-07-29T03:46:17;20.43;;;18.20;;
1682;SDS011;13252;53.596;10.060;2023-07-29T03:48:48;25.13;;;17.30;;
1682;SDS011;13252;53.596;10.060;2023-07-29T03:51:15;20.00;;;18.00;;
1682;SDS011;13252;53.596;10.060;2023-07-29T03:53:43;27.83;;;19.83;;
1682;SDS011;13252;53.596;10.060;2023-07-29T03:56:11;32.10;;;21.90;;
1682;SDS011;13252;53.596;10.060;2023-07-29T03:58:39;26.00;;;21.77;;
1682;SDS011;13252;53.596;10.060;2023-07-29T04:01:07;27.30;;;21.87;;
1682;SDS011;13252;53.596;10.060;2023-07-29T04:03:35;26.20;;;22.10;;
1682;SDS011;13252;53.596;10.060;2023-07-29T04:06:03;29.90;;;23.70;;
1682;SDS011;13252;53.596;10.060;2023-07-29T04:08:31;29.77;;;22.83;;
1682;SDS011;13252;53.596;10.060;2023-07-29T04:10:58;26.23;;;23.40;;
1682;SDS011;13252;53.596;10.060;2023-07-29T04:13:26;27.30;;;24.43;;
1682;SDS011;13252;53.596;10.060;2023-07-29T04:15:55;32.27;;;26.63;;
1682;SDS011;13252;53.596;10.060;2023-07-29T04:18:23;28.83;;;25.73;;
1682;SDS011;13252;53.596;10.060;2023-07-29T04:20:51;32.50;;;26.77;;
1682;SDS011;13252;53.596;10.060;2023-07-29T04:23:18;38.10;;;31.07;;
1682;SDS011;13252;53.596;10.060;2023-07-29T04:25:46;43.10;;;33.70;;
1682;SDS011;13252;53.596;10.060;2023-07-29T04:28:14;45.37;;;37.03;;
1682;SDS011;13252;53.596;10.060;2023-07-29T04:30:41;41.27;;;34.67;;
1682;SDS011;13252;53.596;10.060;2023-07-29T04:33:10;46.53;;;35.73;;
1682;SDS011;13252;53.596;10.060;2023-07-29T04:35:38;41.37;;;33.97;;
1682;SDS011;13252;53.596;10.060;2023-07-29T04:38:06;42.20;;;34.10;;
1682;SDS011;13252;53.596;10.060;2023-07-29T04:40:33;41.20;;;34.03;;
1682;SDS011;13252;53.596;10.060;2023-07-29T04:43:02;45.97;;;35.33;;
1682;SDS011;13252;53.596;10.060;2023-07-29T04:45:29;42.27;;;35.67;;
1682;SDS011;13252;53.596;10.060;2023-07-29T04:47:59;61.83;;;41.67;;
1682;SDS011;13252;53.596;10.060;2023-07-29T04:50:28;51.73;;;40.90;;
1682;SDS011;13252;53.596;10.060;2023-07-29T04:52:56;57.93;;;45.20;;
1682;SDS011;13252;53.596;10.060;2023-07-29T04:55:23;59.57;;;42.30;;
1682;SDS011;13252;53.596;10.060;2023-07-29T04:57:51;56.70;;;42.97;;
1682;SDS011;13252;53.596;10.060;2023-07-29T05:00:19;51.73;;;42.10;;
1682;SDS011;13252;53.596;10.060;2023-07-29T05:02:46;52.40;;;40.50;;
1682;SDS011;13252;53.596;10.060;2023-07-29T05:05:14;56.80;;;43.23;;
1682;SDS011;13252;53.596;10.060;2023-07-29T05:07:44;53.73;;;42.73;;
1682;SDS011;13252;53.596;10.060;2023-07-29T05:10:11;56.17;;;42.83;;
1682;SDS011;13252;53.596;10.060;2023-07-29T05:12:39;53.30;;;42.30;;
1682;SDS011;13252;53.596;10.060;2023-07-29T05:15:07;54.50;;;41.63;;
1682;SDS011;13252;53.596;10.060;2023-07-29T05:17:35;51.90;;;41.03;;
1682;SDS011;13252;53.596;10.060;2023-07-29T05:20:03;52.13;;;40.73;;
1682;SDS011;13252;53.596;10.060;2023-07-29T05:22:32;52.23;;;41.60;;
1682;SDS011;13252;53.596;10.060;2023-07-29T05:25:01;54.93;;;44.30;;
1682;SDS011;13252;53.596;10.060;2023-07-29T05:27:28;56.20;;;43.47;;
1682;SDS011;13252;53.596;10.060;2023-07-29T05:29:56;49.90;;;40.90;;
1682;SDS011;13252;53.596;10.060;2023-07-29T05:32:23;48.87;;;40.77;;
1682;SDS011;13252;53.596;10.060;2023-07-29T05:34:51;40.00;;;35.70;;
1682;SDS011;13252;53.596;10.060;2023-07-29T05:37:20;57.63;;;36.07;;
1682;SDS011;13252;53.596;10.060;2023-07-29T05:39:48;43.23;;;36.13;;
1682;SDS011;13252;53.596;10.060;2023-07-29T05:42:17;38.70;;;34.30;;
1682;SDS011;13252;53.596;10.060;2023-07-29T05:44:45;38.40;;;34.23;;
1682;SDS011;13252;53.596;10.060;2023-07-29T05:47:12;38.60;;;31.53;;
1682;SDS011;13252;53.596;10.060;2023-07-29T05:49:40;36.77;;;32.77;;
1682;SDS011;13252;53.596;10.060;2023-07-29T05:52:07;36.23;;;32.37;;
1682;SDS011;13252;53.596;10.060;2023-07-29T05:54:35;37.93;;;33.93;;
1682;SDS011;13252;53.596;10.060;2023-07-29T05:57:03;41.97;;;34.80;;
1682;SDS011;13252;53.596;10.060;2023-07-29T05:59:33;39.17;;;35.20;;
1682;SDS011;13252;53.596;10.060;2023-07-29T06:02:01;38.83;;;34.63;;
1682;SDS011;13252;53.596;10.060;2023-07-29T06:04:30;38.83;;;34.90;;
1682;SDS011;13252;53.596;10.060;2023-07-29T06:06:58;35.67;;;32.07;;
1682;SDS011;13252;53.596;10.060;2023-07-29T06:09:26;37.40;;;33.50;;
1682;SDS011;13252;53.596;10.060;2023-07-29T06:11:54;42.63;;;38.27;;
1682;SDS011;13252;53.596;10.060;2023-07-29T06:14:21;47.40;;;42.70;;
1682;SDS011;13252;53.596;10.060;2023-07-29T06:16:50;46.50;;;41.80;;
1682;SDS011;13252;53.596;10.060;2023-07-29T06:19:18;46.90;;;42.00;;
1682;SDS011;13252;53.596;10.060;2023-07-29T06:21:45;49.63;;;43.77;;
1682;SDS011;13252;53.596;10.060;2023-07-29T06:24:13;44.43;;;39.73;;
1682;SDS011;13252;53.596;10.060;2023-07-29T06:26:41;44.80;;;40.30;;
1682;SDS011;13252;53.596;10.060;2023-07-29T06:29:08;41.87;;;37.57;;
1682;SDS011;13252;53.596;10.060;2023-07-29T06:31:36;40.67;;;36.73;;
1682;SDS011;13252;53.596;10.060;2023-07-29T06:34:05;41.17;;;37.00;;
1682;SDS011;13252;53.596;10.060;2023-07-29T06:36:32;42.80;;;38.20;;
1682;SDS011;13252;53.596;10.060;2023-07-29T06:39:01;38.47;;;34.77;;
1682;SDS011;13252;53.596;10.060;2023-07-29T06:41:28;36.40;;;32.70;;
1682;SDS011;13252;53.596;10.060;2023-07-29T06:43:57;35.50;;;31.73;;
1682;SDS011;13252;53.596;10.060;2023-07-29T06:46:25;33.10;;;30.03;;
1682;SDS011;13252;53.596;10.060;2023-07-29T06:48:52;35.70;;;31.03;;
1682;SDS011;13252;53.596;10.060;2023-07-29T06:51:22;38.23;;;34.23;;
1682;SDS011;13252;53.596;10.060;2023-07-29T06:53:49;34.00;;;30.60;;
1682;SDS011;13252;53.596;10.060;2023-07-29T06:56:17;34.00;;;30.40;;
1682;SDS011;13252;53.596;10.060;2023-07-29T06:58:44;37.17;;;28.13;;
1682;SDS011;13252;53.596;10.060;2023-07-29T07:01:12;29.70;;;26.80;;
1682;SDS011;13252;53.596;10.060;2023-07-29T07:03:39;29.10;;;26.37;;
1682;SDS011;13252;53.596;10.060;2023-07-29T07:06:07;32.20;;;26.47;;
1682;SDS011;13252;53.596;10.060;2023-07-29T07:08:36;29.53;;;26.43;;
1682;SDS011;13252;53.596;10.060;2023-07-29T07:11:04;28.23;;;25.40;;
1682;SDS011;13252;53.596;10.060;2023-07-29T07:13:31;28.60;;;25.77;;
1682;SDS011;13252;53.596;10.060;2023-07-29T07:15:59;28.90;;;25.93;;
1682;SDS011;13252;53.596;10.060;2023-07-29T07:18:27;27.53;;;24.90;;
1682;SDS011;13252;53.596;10.060;2023-07-29T07:20:54;31.50;;;26.67;;
1682;SDS011;13252;53.596;10.060;2023-07-29T07:23:22;29.43;;;26.50;;
1682;SDS011;13252;53.596;10.060;2023-07-29T07:25:51;29.33;;;26.23;;
1682;SDS011;13252;53.596;10.060;2023-07-29T07:28:18;31.30;;;28.10;;
1682;SDS011;13252;53.596;10.060;2023-07-29T07:30:46;30.17;;;27.03;;
1682;SDS011;13252;53.596;10.060;2023-07-29T07:33:14;29.10;;;26.20;;
1682;SDS011;13252;53.596;10.060;2023-07-29T07:35:41;30.33;;;27.23;;
1682;SDS011;13252;53.596;10.060;2023-07-29T07:38:09;31.23;;;28.13;;
1682;SDS011;13252;53.596;10.060;2023-07-29T07:40:36;34.90;;;29.00;;
1682;SDS011;13252;53.596;10.060;2023-07-29T07:43:05;33.43;;;29.23;;
1682;SDS011;13252;53.596;10.060;2023-07-29T07:45:33;32.10;;;28.93;;
1682;SDS011;13252;53.596;10.060;2023-07-29T07:48:00;33.70;;;28.10;;
1682;SDS011;13252;53.596;10.060;2023-07-29T07:50:29;32.87;;;29.30;;
1682;SDS011;13252;53.596;10.060;2023-07-29T07:52:57;31.57;;;28.00;;
1682;SDS011;13252;53.596;10.060;2023-07-29T07:55:24;32.00;;;26.07;;
1682;SDS011;13252;53.596;10.060;2023-07-29T07:57:52;31.80;;;27.77;;
1682;SDS011;13252;53.596;10.060;2023-07-29T08:00:21;30.83;;;27.43;;
1682;SDS011;13252;53.596;10.060;2023-07-29T08:02:49;29.20;;;26.10;;
1682;SDS011;13252;53.596;10.060;2023-07-29T08:05:16;29.00;;;24.93;;
1682;SDS011;13252;53.596;10.060;2023-07-29T08:07:44;23.47;;;21.03;;
1682;SDS011;13252;53.596;10.060;2023-07-29T08:10:12;26.40;;;23.13;;
1682;SDS011;13252;53.596;10.060;2023-07-29T08:12:39;24.47;;;21.80;;
1682;SDS011;13252;53.596;10.060;2023-07-29T08:15:07;26.83;;;24.00;;
1682;SDS011;13252;53.596;10.060;2023-07-29T08:17:36;27.63;;;24.97;;
1682;SDS011;13252;53.596;10.060;2023-07-29T08:20:04;26.20;;;23.50;;
1682;SDS011;13252;53.596;10.060;2023-07-29T08:22:33;27.30;;;23.03;;
1682;SDS011;13252;53.596;10.060;2023-07-29T08:25:00;22.87;;;20.50;;
1682;SDS011;13252;53.596;10.060;2023-07-29T08:27:28;22.00;;;19.90;;
1682;SDS011;13252;53.596;10.060;2023-07-29T08:29:55;20.73;;;18.83;;
1682;SDS011;13252;53.596;10.060;2023-07-29T08:32:23;20.40;;;18.27;;
1682;SDS011;13252;53.596;10.060;2023-07-29T08:34:52;18.97;;;17.20;;
1682;SDS011;13252;53.596;10.060;2023-07-29T08:37:19;20.57;;;18.43;;
1682;SDS011;13252;53.596;10.060;2023-07-29T08:39:47;21.83;;;19.73;;
1682;SDS011;13252;53.596;10.060;2023-07-29T08:42:15;21.50;;;19.40;;
1682;SDS011;13252;53.596;10.060;2023-07-29T08:44:44;22.93;;;20.63;;
1682;SDS011;13252;53.596;10.060;2023-07-29T08:47:12;22.93;;;20.63;;
1682;SDS011;13252;53.596;10.060;2023-07-29T08:49:40;23.17;;;19.87;;
1682;SDS011;13252;53.596;10.060;2023-07-29T08:52:10;22.47;;;20.17;;
1682;SDS011;13252;53.596;10.060;2023-07-29T08:54:38;20.20;;;18.10;;
1682;SDS011;13252;53.596;10.060;2023-07-29T08:57:06;20.30;;;18.30;;
1682;SDS011;13252;53.596;10.060;2023-07-29T08:59:34;19.27;;;17.47;;
1682;SDS011;13252;53.596;10.060;2023-07-29T09:02:01;21.40;;;19.10;;
1682;SDS011;13252;53.596;10.060;2023-07-29T09:04:29;22.33;;;18.13;;
1682;SDS011;13252;53.596;10.060;2023-07-29T09:06:57;20.70;;;18.30;;
1682;SDS011;13252;53.596;10.060;2023-07-29T09:09:27;21.53;;;18.90;;
1682;SDS011;13252;53.596;10.060;2023-07-29T09:11:55;22.13;;;19.87;;
1682;SDS011;13252;53.596;10.060;2023-07-29T09:14:23;21.17;;;19.20;;
1682;SDS011;13252;53.596;10.060;2023-07-29T09:16:51;23.67;;;21.13;;
1682;SDS011;13252;53.596;10.060;2023-07-29T09:19:19;20.70;;;18.83;;
1682;SDS011;13252;53.596;10.060;2023-07-29T09:21:46;19.33;;;17.50;;
1682;SDS011;13252;53.596;10.060;2023-07-29T09:24:15;21.17;;;19.17;;
1682;SDS011;13252;53.596;10.060;2023-07-29T09:26:49;19.20;;;17.30;;
1682;SDS011;13252;53.596;10.060;2023-07-29T09:29:21;20.47;;;18.30;;
1682;SDS011;13252;53.596;10.060;2023-07-29T09:31:50;17.83;;;16.10;;
1682;SDS011;13252;53.596;10.060;2023-07-29T09:34:17;19.47;;;17.47;;
1682;SDS011;13252;53.596;10.060;2023-07-29T09:36:45;19.10;;;17.40;;
1682;SDS011;13252;53.596;10.060;2023-07-29T09:39:13;17.90;;;15.80;;
1682;SDS011;13252;53.596;10.060;2023-07-29T09:41:40;18.00;;;16.20;;
1682;SDS011;13252;53.596;10.060;2023-07-29T09:44:10;16.73;;;15.23;;
1682;SDS011;13252;53.596;10.060;2023-07-29T09:46:37;16.60;;;15.10;;
1682;SDS011;13252;53.596;10.060;2023-07-29T09:49:06;23.80;;;15.83;;
1682;SDS011;13252;53.596;10.060;2023-07-29T09:51:36;16.03;;;14.50;;
1682;SDS011;13252;53.596;10.060;2023-07-29T09:54:04;15.73;;;14.33;;
1682;SDS011;13252;53.596;10.060;2023-07-29T09:56:32;16.07;;;14.50;;
1682;SDS011;13252;53.596;10.060;2023-07-29T09:59:00;16.10;;;14.47;;
1682;SDS011;13252;53.596;10.060;2023-07-29T10:01:32;16.23;;;14.53;;
1682;SDS011;13252;53.596;10.060;2023-07-29T10:04:02;14.50;;;13.20;;
1682;SDS011;13252;53.596;10.060;2023-07-29T10:06:30;15.37;;;12.60;;
1682;SDS011;13252;53.596;10.060;2023-07-29T10:08:58;12.13;;;11.00;;
1682;SDS011;13252;53.596;10.060;2023-07-29T10:11:26;11.40;;;10.20;;
1682;SDS011;13252;53.596;10.060;2023-07-29T10:13:54;10.70;;;9.03;;
1682;SDS011;13252;53.596;10.060;2023-07-29T10:16:35;9.50;;;8.50;;
1682;SDS011;13252;53.596;10.060;2023-07-29T10:19:04;9.40;;;8.50;;
1682;SDS011;13252;53.596;10.060;2023-07-29T10:21:32;8.73;;;7.40;;
1682;SDS011;13252;53.596;10.060;2023-07-29T10:24:01;7.57;;;6.67;;
1682;SDS011;13252;53.596;10.060;2023-07-29T10:26:29;7.30;;;5.60;;
1682;SDS011;13252;53.596;10.060;2023-07-29T10:28:59;7.13;;;6.43;;
1682;SDS011;13252;53.596;10.060;2023-07-29T10:31:32;6.77;;;6.17;;
1682;SDS011;13252;53.596;10.060;2023-07-29T10:34:01;6.80;;;5.83;;
1682;SDS011;13252;53.596;10.060;2023-07-29T10:36:29;6.70;;;5.80;;
1682;SDS011;13252;53.596;10.060;2023-07-29T10:38:56;8.57;;;4.83;;
1682;SDS011;13252;53.596;10.060;2023-07-29T10:41:26;9.80;;;5.20;;
1682;SDS011;13252;53.596;10.060;2023-07-29T10:47:17;5.80;;;4.70;;
1682;SDS011;13252;53.596;10.060;2023-07-29T10:49:46;5.40;;;4.40;;
1682;SDS011;13252;53.596;10.060;2023-07-29T10:52:15;6.40;;;4.70;;
1682;SDS011;13252;53.596;10.060;2023-07-29T10:54:43;5.77;;;4.90;;
1682;SDS011;13252;53.596;10.060;2023-07-29T10:57:17;5.97;;;5.37;;
1682;SDS011;13252;53.596;10.060;2023-07-29T10:59:58;7.53;;;5.70;;
1682;SDS011;13252;53.596;10.060;2023-07-29T11:02:29;6.83;;;5.57;;
1682;SDS011;13252;53.596;10.060;2023-07-29T11:04:58;6.30;;;5.70;;
1682;SDS011;13252;53.596;10.060;2023-07-29T11:07:27;8.37;;;5.20;;
1682;SDS011;13252;53.596;10.060;2023-07-29T11:09:55;7.07;;;5.13;;
1682;SDS011;13252;53.596;10.060;2023-07-29T11:12:43;6.17;;;5.57;;
1682;SDS011;13252;53.596;10.060;2023-07-29T11:15:14;4.73;;;4.23;;
1682;SDS011;13252;53.596;10.060;2023-07-29T11:17:44;7.23;;;4.27;;
1682;SDS011;13252;53.596;10.060;2023-07-29T11:20:12;5.70;;;4.13;;
1682;SDS011;13252;53.596;10.060;2023-07-29T11:22:41;6.07;;;4.60;;
1682;SDS011;13252;53.596;10.060;2023-07-29T11:25:10;7.37;;;4.47;;
1682;SDS011;13252;53.596;10.060;2023-07-29T11:27:39;5.00;;;4.17;;
1682;SDS011;13252;53.596;10.060;2023-07-29T11:30:09;6.83;;;4.60;;
1682;SDS011;13252;53.596;10.060;2023-07-29T11:32:39;6.10;;;4.10;;
1682;SDS011;13252;53.596;10.060;2023-07-29T11:35:08;7.50;;;4.30;;
1682;SDS011;13252;53.596;10.060;2023-07-29T11:37:37;4.00;;;3.60;;
1682;SDS011;13252;53.596;10.060;2023-07-29T11:40:05;17.97;;;3.30;;
1682;SDS011;13252;53.596;10.060;2023-07-29T11:42:35;7.57;;;3.50;;
1682;SDS011;13252;53.596;10.060;2023-07-29T11:45:04;3.80;;;2.90;;
1682;SDS011;13252;53.596;10.060;2023-07-29T11:47:35;5.20;;;3.13;;
1682;SDS011;13252;53.596;10.060;2023-07-29T11:50:03;5.03;;;3.17;;
1682;SDS011;13252;53.596;10.060;2023-07-29T11:52:32;4.57;;;3.83;;
1682;SDS011;13252;53.596;10.060;2023-07-29T11:55:01;3.97;;;3.20;;
1682;SDS011;13252;53.596;10.060;2023-07-29T11:57:29;5.60;;;3.77;;
1682;SDS011;13252;53.596;10.060;2023-07-29T11:59:57;9.60;;;3.70;;
1682;SDS011;13252;53.596;10.060;2023-07-29T12:02:25;6.50;;;3.30;;
1682;SDS011;13252;53.596;10.060;2023-07-29T12:04:54;5.00;;;3.77;;
1682;SDS011;13252;53.596;10.060;2023-07-29T12:07:23;3.87;;;3.10;;
1682;SDS011;13252;53.596;10.060;2023-07-29T12:09:51;4.40;;;3.70;;
1682;SDS011;13252;53.596;10.060;2023-07-29T12:12:19;3.73;;;3.20;;
1682;SDS011;13252;53.596;10.060;2023-07-29T12:14:49;3.67;;;2.93;;
1682;SDS011;13252;53.596;10.060;2023-07-29T12:17:17;5.00;;;3.70;;
1682;SDS011;13252;53.596;10.060;2023-07-29T12:19:45;5.70;;;3.77;;
1682;SDS011;13252;53.596;10.060;2023-07-29T12:22:18;4.60;;;3.33;;
1682;SDS011;13252;53.596;10.060;2023-07-29T12:24:46;4.63;;;3.30;;
1682;SDS011;13252;53.596;10.060;2023-07-29T12:27:14;4.70;;;3.23;;
1682;SDS011;13252;53.596;10.060;2023-07-29T12:29:42;8.40;;;3.67;;
1682;SDS011;13252;53.596;10.060;2023-07-29T12:32:12;4.40;;;3.03;;
1682;SDS011;13252;53.596;10.060;2023-07-29T12:34:40;5.43;;;3.80;;
1682;SDS011;13252;53.596;10.060;2023-07-29T12:37:08;3.03;;;2.43;;
1682;SDS011;13252;53.596;10.060;2023-07-29T12:39:39;4.60;;;2.37;;
1682;SDS011;13252;53.596;10.060;2023-07-29T12:42:08;4.93;;;2.93;;
1682;SDS011;13252;53.596;10.060;2023-07-29T12:44:36;4.23;;;2.50;;
1682;SDS011;13252;53.596;10.060;2023-07-29T12:47:05;3.67;;;2.23;;
1682;SDS011;13252;53.596;10.060;2023-07-29T12:49:35;3.63;;;2.53;;
1682;SDS011;13252;53.596;10.060;2023-07-29T12:52:02;3.73;;;2.30;;
1682;SDS011;13252;53.596;10.060;2023-07-29T12:54:30;3.70;;;1.80;;
1682;SDS011;13252;53.596;10.060;2023-07-29T12:56:59;5.00;;;2.40;;
1682;SDS011;13252;53.596;10.060;2023-07-29T12:59:27;4.90;;;2.40;;
1682;SDS011;13252;53.596;10.060;2023-07-29T13:01:55;3.93;;;2.50;;
1682;SDS011;13252;53.596;10.060;2023-07-29T13:04:22;5.13;;;2.20;;
1682;SDS011;13252;53.596;10.060;2023-07-29T13:06:50;2.83;;;1.80;;
1682;SDS011;13252;53.596;10.060;2023-07-29T13:09:18;3.10;;;1.93;;
1682;SDS011;13252;53.596;10.060;2023-07-29T13:11:46;7.00;;;2.77;;
1682;SDS011;13252;53.596;10.060;2023-07-29T13:14:15;3.40;;;2.13;;
1682;SDS011;13252;53.596;10.060;2023-07-29T13:16:42;4.13;;;1.70;;
1682;SDS011;13252;53.596;10.060;2023-07-29T13:19:10;4.03;;;1.90;;
1682;SDS011;13252;53.596;10.060;2023-07-29T13:21:38;4.47;;;2.23;;
1682;SDS011;13252;53.596;10.060;2023-07-29T13:24:05;3.90;;;2.00;;
1682;SDS011;13252;53.596;10.060;2023-07-29T13:26:33;3.60;;;1.83;;
1682;SDS011;13252;53.596;10.060;2023-07-29T13:29:01;3.73;;;1.70;;
1682;SDS011;13252;53.596;10.060;2023-07-29T13:31:35;4.80;;;1.90;;
1682;SDS011;13252;53.596;10.060;2023-07-29T13:34:03;4.83;;;2.23;;
1682;SDS011;13252;53.596;10.060;2023-07-29T13:36:30;4.67;;;1.70;;
1682;SDS011;13252;53.596;10.060;2023-07-29T13:38:58;8.00;;;1.77;;
1682;SDS011;13252;53.596;10.060;2023-07-29T13:41:25;4.20;;;2.30;;
1682;SDS011;13252;53.596;10.060;2023-07-29T13:43:53;3.67;;;2.13;;
1682;SDS011;13252;53.596;10.060;2023-07-29T13:46:21;5.63;;;2.20;;
1682;SDS011;13252;53.596;10.060;2023-07-29T13:48:50;3.77;;;2.03;;
1682;SDS011;13252;53.596;10.060;2023-07-29T13:51:17;3.80;;;1.80;;
1682;SDS011;13252;53.596;10.060;2023-07-29T13:53:45;3.80;;;2.03;;
1682;SDS011;13252;53.596;10.060;2023-07-29T13:56:12;2.73;;;1.80;;
1682;SDS011;13252;53.596;10.060;2023-07-29T13:58:40;4.07;;;2.27;;
1682;SDS011;13252;53.596;10.060;2023-07-29T14:01:08;3.33;;;1.90;;
1682;SDS011;13252;53.596;10.060;2023-07-29T14:03:35;5.90;;;2.43;;
1682;SDS011;13252;53.596;10.060;2023-07-29T14:06:04;5.17;;;2.30;;
1682;SDS011;13252;53.596;10.060;2023-07-29T14:08:32;4.50;;;2.17;;
1682;SDS011;13252;53.596;10.060;2023-07-29T14:11:01;4.53;;;2.00;;
1682;SDS011;13252;53.596;10.060;2023-07-29T14:13:29;5.03;;;2.10;;
1682;SDS011;13252;53.596;10.060;2023-07-29T14:15:56;2.80;;;1.87;;
1682;SDS011;13252;53.596;10.060;2023-07-29T14:18:24;3.60;;;2.10;;
1682;SDS011;13252;53.596;10.060;2023-07-29T14:20:52;4.07;;;2.40;;
1682;SDS011;13252;53.596;10.060;2023-07-29T14:23:20;3.57;;;1.77;;
1682;SDS011;13252;53.596;10.060;2023-07-29T14:25:48;3.30;;;1.83;;
1682;SDS011;13252;53.596;10.060;2023-07-29T14:28:16;3.00;;;1.70;;
1682;SDS011;13252;53.596;10.060;2023-07-29T14:30:44;4.13;;;2.00;;
1682;SDS011;13252;53.596;10.060;2023-07-29T14:33:11;10.07;;;2.83;;
1682;SDS011;13252;53.596;10.060;2023-07-29T14:35:42;5.53;;;2.50;;
1682;SDS011;13252;53.596;10.060;2023-07-29T14:38:09;6.80;;;2.53;;
1682;SDS011;13252;53.596;10.060;2023-07-29T14:40:38;5.80;;;2.07;;